Time;durP1;ratioP1;P1;durP2;ratioP2;P2;SDS_P1;SDS_P2;PMS_P1;PMS_P2;Temp;Humidity;BMP_temperature;BMP_pressure;BME280_temperature;BME280_humidity;BME280_pressure;Samples;Min_cycle;Max_cycle;Signal;HPM_P1;HPM_P2
2022/12/02 00:02:30;;;;;;;61.72;25.60;;;3.90;99.90;;;;;;5054630;28;20064;-79
2022/12/02 00:05:20;;;;;;;53.65;25.23;;;3.90;99.90;;;;;;5053506;28;20451;-82
2022/12/02 00:08:20;;;;;;;56.97;24.20;;;3.80;99.90;;;;;;5051354;28;20114;-83
2022/12/02 00:11:25;;;;;;;56.20;24.17;;;3.90;99.90;;;;;;5051460;28;20053;-80
2022/12/02 00:14:23;;;;;;;53.50;24.50;;;3.80;99.90;;;;;;5050856;28;20147;-81
2022/12/02 00:17:09;;;;;;;55.40;23.65;;;3.80;99.90;;;;;;5053154;28;20575;-78
2022/12/02 00:19:55;;;;;;;58.53;25.50;;;3.80;99.90;;;;;;5057832;28;20087;-80
2022/12/02 00:22:42;;;;;;;58.60;23.63;;;3.80;99.90;;;;;;5034859;28;20497;-86
2022/12/02 00:25:28;;;;;;;55.47;24.85;;;3.80;99.90;;;;;;5034418;28;20126;-77
2022/12/02 00:28:15;;;;;;;55.42;25.00;;;3.80;99.90;;;;;;5050371;28;20453;-79
2022/12/02 00:31:01;;;;;;;52.53;23.63;;;3.80;99.90;;;;;;5051913;28;20041;-85
2022/12/02 00:33:47;;;;;;;53.90;23.88;;;3.70;99.90;;;;;;5051156;28;20049;-85
2022/12/02 00:36:34;;;;;;;51.72;24.83;;;3.70;99.90;;;;;;5051756;28;20074;-78
2022/12/02 00:39:20;;;;;;;59.47;25.60;;;3.70;99.90;;;;;;5034223;28;20095;-79
2022/12/02 00:42:06;;;;;;;63.40;26.48;;;3.70;99.90;;;;;;5023847;28;20459;-78
2022/12/02 00:47:57;;;;;;;58.92;24.65;;;3.70;99.90;;;;;;5050944;28;20052;-82
2022/12/02 00:50:43;;;;;;;60.17;25.60;;;3.70;99.90;;;;;;5033525;28;20264;-81
2022/12/02 00:53:30;;;;;;;53.35;24.33;;;3.70;99.90;;;;;;5052749;28;20131;-78
2022/12/02 00:56:16;;;;;;;58.63;25.65;;;3.70;99.90;;;;;;5051856;28;20435;-83
2022/12/02 00:59:02;;;;;;;61.10;25.52;;;3.70;99.90;;;;;;5052729;28;20052;-79
2022/12/02 01:01:48;;;;;;;53.03;25.02;;;3.70;99.90;;;;;;5052279;28;20048;-80
2022/12/02 01:04:35;;;;;;;55.88;23.45;;;3.70;99.90;;;;;;5051103;28;20492;-84
2022/12/02 01:07:21;;;;;;;53.65;24.75;;;3.70;99.90;;;;;;5036657;28;20132;-82
2022/12/02 01:10:07;;;;;;;53.05;23.25;;;3.70;99.90;;;;;;5052181;28;20045;-79
2022/12/02 01:12:54;;;;;;;55.92;25.17;;;3.70;99.90;;;;;;5051949;28;20495;-77
2022/12/02 01:15:40;;;;;;;56.15;24.02;;;3.70;99.90;;;;;;5052105;28;20044;-77
2022/12/02 01:18:26;;;;;;;54.63;25.15;;;3.60;99.90;;;;;;5053461;28;20468;-78
2022/12/02 01:21:12;;;;;;;54.65;24.60;;;3.60;99.90;;;;;;5035268;28;20429;-79
2022/12/02 01:23:58;;;;;;;58.60;25.58;;;3.60;99.90;;;;;;5052742;28;20057;-85
2022/12/02 01:26:44;;;;;;;58.60;23.90;;;3.60;99.90;;;;;;5018413;28;20064;-79
2022/12/02 01:29:30;;;;;;;59.80;25.77;;;3.60;99.90;;;;;;5050267;28;20120;-79
2022/12/02 01:32:18;;;;;;;54.00;24.85;;;3.60;99.90;;;;;;5035118;28;20679;-77
2022/12/02 01:35:05;;;;;;;53.58;24.58;;;3.60;99.90;;;;;;5034665;28;20103;-81
2022/12/02 01:37:51;;;;;;;52.83;23.15;;;3.60;99.90;;;;;;5036423;28;20045;-85
2022/12/02 01:40:37;;;;;;;54.28;23.05;;;3.60;99.90;;;;;;5019017;28;20049;-79
2022/12/02 01:43:24;;;;;;;49.17;23.17;;;3.60;99.90;;;;;;5051502;28;20115;-80
2022/12/02 01:46:10;;;;;;;44.67;21.85;;;3.60;99.90;;;;;;5050568;28;20089;-83
2022/12/02 01:48:56;;;;;;;47.90;21.92;;;3.50;99.90;;;;;;5051352;28;20057;-82
2022/12/02 01:51:43;;;;;;;43.20;21.17;;;3.50;99.90;;;;;;5020778;28;20059;-79
2022/12/02 01:54:30;;;;;;;42.40;21.08;;;3.50;99.90;;;;;;5049766;28;20049;-79
2022/12/02 01:57:20;;;;;;;47.72;19.83;;;3.50;99.90;;;;;;5032627;28;20140;-80
2022/12/02 02:00:07;;;;;;;41.13;19.02;;;3.50;99.90;;;;;;5032984;28;20061;-85
2022/12/02 02:02:53;;;;;;;39.22;19.17;;;3.50;99.90;;;;;;5033011;28;20056;-78
2022/12/02 02:05:40;;;;;;;38.83;19.73;;;3.40;99.90;;;;;;5033372;28;20052;-78
2022/12/02 02:08:26;;;;;;;40.58;19.23;;;3.50;99.90;;;;;;5031343;28;20119;-78
2022/12/02 02:11:12;;;;;;;40.53;17.85;;;3.40;99.90;;;;;;5032438;28;20059;-79
2022/12/02 02:13:59;;;;;;;45.92;19.77;;;3.40;99.90;;;;;;5050420;28;20501;-87
2022/12/02 02:16:46;;;;;;;42.08;18.52;;;3.40;99.90;;;;;;5050603;28;20048;-78
2022/12/02 02:19:32;;;;;;;41.92;19.45;;;3.40;99.90;;;;;;5033773;28;20057;-79
2022/12/02 02:22:44;;;;;;;36.80;18.30;;;3.40;99.90;;;;;;5048457;28;20064;-79
2022/12/02 02:25:46;;;;;;;41.72;19.65;;;3.40;99.90;;;;;;5032455;28;20056;-81
2022/12/02 02:28:33;;;;;;;47.38;20.30;;;3.30;99.90;;;;;;5051537;28;20570;-83
2022/12/02 02:31:19;;;;;;;45.15;19.08;;;3.30;99.90;;;;;;5033177;28;20089;-82
2022/12/02 02:34:06;;;;;;;46.30;20.90;;;3.30;99.90;;;;;;5054141;28;20401;-79
2022/12/02 02:36:53;;;;;;;48.13;20.52;;;3.30;99.90;;;;;;5054203;28;20051;-83
2022/12/02 02:39:39;;;;;;;44.30;19.73;;;3.30;99.90;;;;;;5035517;28;20052;-84
2022/12/02 02:42:25;;;;;;;47.13;20.58;;;3.30;99.90;;;;;;5055455;28;20052;-79
2022/12/02 02:45:12;;;;;;;45.42;19.65;;;3.30;99.90;;;;;;5034954;28;20059;-81
2022/12/02 02:47:59;;;;;;;43.13;20.10;;;3.40;99.90;;;;;;5053116;28;20053;-85
2022/12/02 02:50:47;;;;;;;50.15;20.55;;;3.30;99.90;;;;;;5053890;28;20504;-82
2022/12/02 02:53:33;;;;;;;42.33;19.90;;;3.30;99.90;;;;;;5038839;28;20111;-82
2022/12/02 02:56:20;;;;;;;44.30;20.30;;;3.30;99.90;;;;;;5053463;28;20045;-86
2022/12/02 02:59:09;;;;;;;43.08;20.70;;;3.40;99.90;;;;;;5038318;28;20504;-81
2022/12/02 03:01:56;;;;;;;48.55;21.23;;;3.40;99.90;;;;;;5035493;28;20107;-80
2022/12/02 03:04:43;;;;;;;45.22;20.30;;;3.30;99.90;;;;;;5052775;28;20115;-84
2022/12/02 03:07:29;;;;;;;44.85;20.52;;;3.30;99.90;;;;;;5038517;28;20517;-79
2022/12/02 03:10:16;;;;;;;48.97;21.15;;;3.30;99.90;;;;;;5052228;28;20053;-79
2022/12/02 03:13:02;;;;;;;47.63;20.83;;;3.30;99.90;;;;;;5039320;28;20107;-78
2022/12/02 03:15:48;;;;;;;45.70;20.33;;;3.30;99.90;;;;;;5052651;28;20576;-78
2022/12/02 03:18:36;;;;;;;52.17;22.50;;;3.30;99.90;;;;;;5054279;28;20077;-82
2022/12/02 03:21:25;;;;;;;44.47;19.92;;;3.30;99.90;;;;;;5039448;28;20076;-83
2022/12/02 03:24:11;;;;;;;49.80;22.75;;;3.30;99.90;;;;;;5052611;28;20065;-80
2022/12/02 03:26:59;;;;;;;45.90;20.92;;;3.30;99.90;;;;;;5056022;28;20045;-77
2022/12/02 03:29:45;;;;;;;47.92;21.10;;;3.30;99.90;;;;;;5052533;28;20443;-83
2022/12/02 03:32:32;;;;;;;48.97;21.27;;;3.30;99.90;;;;;;5036549;28;20774;-80
2022/12/02 03:35:19;;;;;;;47.65;21.50;;;3.30;99.90;;;;;;5038156;28;20053;-82
2022/12/02 03:38:05;;;;;;;43.00;20.50;;;3.30;99.90;;;;;;5056957;28;20056;-81
2022/12/02 03:40:52;;;;;;;52.65;21.58;;;3.30;99.90;;;;;;5040813;28;20060;-77
2022/12/02 03:43:38;;;;;;;50.88;22.40;;;3.30;99.90;;;;;;5037496;28;20132;-80
2022/12/02 03:46:26;;;;;;;45.83;20.30;;;3.40;99.90;;;;;;5063310;28;20049;-80
2022/12/02 03:49:12;;;;;;;49.05;20.40;;;3.40;99.90;;;;;;5061041;28;20147;-83
2022/12/02 03:51:59;;;;;;;50.40;21.38;;;3.40;99.90;;;;;;5058191;28;20084;-83
2022/12/02 03:54:45;;;;;;;47.33;20.67;;;3.40;99.90;;;;;;5025281;28;20053;-77
2022/12/02 03:57:33;;;;;;;46.50;20.95;;;3.40;99.90;;;;;;5052944;28;20115;-76
2022/12/02 04:00:19;;;;;;;50.20;21.15;;;3.40;99.90;;;;;;5054751;28;20481;-77
2022/12/02 04:03:05;;;;;;;50.15;22.63;;;3.50;99.90;;;;;;5038341;28;20158;-78
2022/12/02 04:05:52;;;;;;;53.25;22.35;;;3.50;99.90;;;;;;5039983;28;20048;-78
2022/12/02 04:08:38;;;;;;;48.25;21.67;;;3.40;99.90;;;;;;5056296;28;20059;-78
2022/12/02 04:11:24;;;;;;;51.30;23.10;;;3.50;99.90;;;;;;5033560;28;20045;-77
2022/12/02 04:14:10;;;;;;;48.05;20.75;;;3.50;99.90;;;;;;5049727;28;20055;-86
2022/12/02 04:16:57;;;;;;;49.60;20.75;;;3.50;99.90;;;;;;5021438;28;20057;-82
2022/12/02 04:19:43;;;;;;;49.78;20.45;;;3.50;99.90;;;;;;5053657;28;20136;-79
2022/12/02 04:22:29;;;;;;;45.78;21.75;;;3.50;99.90;;;;;;5053526;28;20119;-81
2022/12/02 04:25:15;;;;;;;49.08;21.35;;;3.50;99.90;;;;;;5033968;28;20053;-82
2022/12/02 04:28:01;;;;;;;51.78;21.67;;;3.50;99.90;;;;;;5033689;28;20576;-80
2022/12/02 04:30:48;;;;;;;52.70;20.40;;;3.60;99.90;;;;;;5050394;28;20041;-83
2022/12/02 04:33:34;;;;;;;42.00;19.85;;;3.60;99.90;;;;;;5033619;28;20135;-78
2022/12/02 04:36:20;;;;;;;48.78;20.88;;;3.50;99.90;;;;;;5054718;28;20060;-77
2022/12/02 04:39:06;;;;;;;48.00;20.58;;;3.50;99.90;;;;;;5053947;28;20052;-77
2022/12/02 04:41:52;;;;;;;51.78;21.52;;;3.60;99.90;;;;;;5051001;28;20119;-77
2022/12/02 04:44:38;;;;;;;49.38;20.83;;;3.60;99.90;;;;;;5033377;28;20505;-77
2022/12/02 04:47:25;;;;;;;51.22;21.60;;;3.50;99.90;;;;;;5037262;28;20049;-82
2022/12/02 04:50:11;;;;;;;46.53;20.63;;;3.60;99.90;;;;;;5036295;28;20099;-81
2022/12/02 04:52:57;;;;;;;48.63;20.20;;;3.50;99.90;;;;;;5035449;28;20146;-79
2022/12/02 04:55:45;;;;;;;50.50;20.13;;;3.50;99.90;;;;;;5035057;28;20052;-77
2022/12/02 04:58:31;;;;;;;46.67;20.50;;;3.40;99.90;;;;;;5036930;28;20491;-81
2022/12/02 05:01:18;;;;;;;52.97;20.58;;;3.40;99.90;;;;;;5034228;28;20489;-78
2022/12/02 05:04:04;;;;;;;47.80;19.65;;;3.40;99.90;;;;;;5037700;28;20052;-80
2022/12/02 05:06:50;;;;;;;48.45;20.75;;;3.30;99.90;;;;;;5037111;28;20187;-79
2022/12/02 05:09:36;;;;;;;51.53;21.85;;;3.30;99.90;;;;;;5054894;28;20409;-76
2022/12/02 05:12:23;;;;;;;41.70;17.80;;;3.30;99.90;;;;;;5034745;28;20052;-79
2022/12/02 05:15:09;;;;;;;47.17;19.80;;;3.20;99.90;;;;;;5035594;28;20056;-81
2022/12/02 05:17:55;;;;;;;48.95;20.92;;;3.10;99.90;;;;;;5031642;28;20056;-77
2022/12/02 05:20:42;;;;;;;46.45;21.65;;;3.10;99.90;;;;;;5034287;28;20543;-83
2022/12/02 05:23:28;;;;;;;49.92;21.63;;;3.10;99.90;;;;;;5052319;28;20052;-77
2022/12/02 05:26:17;;;;;;;46.95;21.58;;;3.10;99.90;;;;;;5033631;28;20497;-80
2022/12/02 05:29:03;;;;;;;57.78;22.92;;;3.10;99.90;;;;;;5019542;28;20052;-77
2022/12/02 05:31:49;;;;;;;39.72;17.90;;;3.10;99.90;;;;;;5050861;28;20446;-82
2022/12/02 05:34:35;;;;;;;48.67;19.35;;;3.00;99.90;;;;;;5050851;28;20052;-84
2022/12/02 05:37:21;;;;;;;51.17;21.67;;;3.00;99.90;;;;;;5034793;28;20488;-77
2022/12/02 05:40:09;;;;;;;50.17;20.77;;;3.00;99.90;;;;;;5033457;28;20053;-82
2022/12/02 05:42:55;;;;;;;59.65;23.15;;;2.90;99.90;;;;;;5049858;28;20045;-79
2022/12/02 05:45:41;;;;;;;57.50;23.42;;;2.90;99.90;;;;;;5050392;28;20056;-84
2022/12/02 05:48:33;;;;;;;51.70;21.30;;;2.90;99.90;;;;;;5034663;28;20064;-79
2022/12/02 05:51:20;;;;;;;56.85;23.42;;;2.80;99.90;;;;;;5035008;28;20123;-78
2022/12/02 05:54:12;;;;;;;60.97;23.75;;;2.80;99.90;;;;;;5035686;28;20061;-78
2022/12/02 05:57:02;;;;;;;62.90;22.80;;;2.80;99.90;;;;;;5049538;28;20045;-77
2022/12/02 05:59:49;;;;;;;61.75;25.25;;;2.70;99.90;;;;;;5050776;28;20128;-81
2022/12/02 06:02:40;;;;;;;48.58;21.65;;;2.70;99.90;;;;;;5052205;28;20106;-79
2022/12/02 06:05:37;;;;;;;62.03;24.13;;;2.70;99.90;;;;;;5052206;28;20064;-85
2022/12/02 06:08:31;;;;;;;55.30;21.30;;;2.70;99.90;;;;;;5053961;28;20052;-77
2022/12/02 06:11:28;;;;;;;55.33;25.17;;;2.70;99.90;;;;;;5053994;28;20057;-78
2022/12/02 06:14:17;;;;;;;55.35;21.70;;;2.60;99.90;;;;;;5054806;28;20125;-79
2022/12/02 06:17:13;;;;;;;62.03;24.35;;;2.70;99.90;;;;;;5038549;28;20044;-80
2022/12/02 06:19:59;;;;;;;58.40;22.48;;;2.70;99.90;;;;;;5037930;28;20041;-84
2022/12/02 06:22:45;;;;;;;55.90;22.80;;;2.70;99.90;;;;;;5024390;28;20076;-84
2022/12/02 06:25:32;;;;;;;59.92;24.17;;;2.70;99.90;;;;;;5037180;28;20505;-81
2022/12/02 06:28:38;;;;;;;60.88;23.73;;;2.80;99.90;;;;;;5037076;28;20700;-84
2022/12/02 06:31:29;;;;;;;58.65;24.63;;;2.80;99.90;;;;;;5027430;28;20099;-86
2022/12/02 06:34:38;;;;;;;54.95;22.30;;;2.90;99.90;;;;;;5056782;28;20045;-86
2022/12/02 06:37:29;;;;;;;58.58;22.65;;;2.90;99.90;;;;;;5037671;28;20143;-77
2022/12/02 06:40:30;;;;;;;54.78;21.05;;;3.00;99.90;;;;;;5053439;28;20045;-79
2022/12/02 06:43:24;;;;;;;52.70;20.73;;;3.10;99.90;;;;;;5035903;28;20045;-81
2022/12/02 06:46:18;;;;;;;39.25;16.48;;;3.10;99.90;;;;;;5037024;28;20063;-79
2022/12/02 06:49:29;;;;;;;42.83;16.35;;;3.30;99.90;;;;;;5040692;28;20420;-82
2022/12/02 06:52:21;;;;;;;37.35;15.88;;;3.40;99.90;;;;;;5042883;28;20053;-80
2022/12/02 06:55:24;;;;;;;39.83;15.98;;;3.50;99.90;;;;;;5042601;28;20191;-79
2022/12/02 06:58:10;;;;;;;36.78;14.68;;;3.60;99.90;;;;;;5057807;28;20053;-81
2022/12/02 07:01:14;;;;;;;30.02;13.52;;;3.70;99.90;;;;;;5043481;28;20057;-80
2022/12/02 07:04:34;;;;;;;36.30;14.63;;;3.80;99.90;;;;;;5056122;28;20048;-87
2022/12/02 07:07:23;;;;;;;33.60;13.68;;;3.80;99.90;;;;;;5054680;28;20045;-79
2022/12/02 07:10:21;;;;;;;32.35;14.10;;;3.90;99.90;;;;;;5036195;28;20055;-83
2022/12/02 07:13:14;;;;;;;28.60;11.80;;;4.00;99.90;;;;;;5052715;28;20053;-79
2022/12/02 07:16:00;;;;;;;26.95;12.20;;;4.10;99.90;;;;;;5055750;28;20060;-84
2022/12/02 07:18:47;;;;;;;29.08;12.63;;;4.10;99.90;;;;;;5034660;28;20087;-83
2022/12/02 07:21:33;;;;;;;25.15;11.15;;;4.10;99.90;;;;;;5053842;28;20053;-84
2022/12/02 07:24:21;;;;;;;26.20;12.35;;;4.20;99.90;;;;;;5033727;28;20499;-78
2022/12/02 07:27:25;;;;;;;32.05;13.15;;;4.10;99.90;;;;;;5039024;28;20052;-83
2022/12/02 07:30:22;;;;;;;35.70;14.00;;;4.10;99.90;;;;;;5052953;28;20160;-79
2022/12/02 07:33:08;;;;;;;32.67;14.02;;;4.10;99.90;;;;;;5052641;28;20045;-84
2022/12/02 07:35:54;;;;;;;36.13;15.20;;;4.10;99.90;;;;;;5055105;28;20143;-83
2022/12/02 07:38:41;;;;;;;32.60;13.93;;;4.10;99.90;;;;;;5051772;28;20550;-84
2022/12/02 07:41:27;;;;;;;28.98;12.88;;;4.10;99.90;;;;;;5052264;28;20057;-80
2022/12/02 07:44:13;;;;;;;36.60;16.13;;;4.10;99.90;;;;;;5056121;28;20504;-87
2022/12/02 07:46:59;;;;;;;42.25;17.83;;;4.10;99.90;;;;;;5036036;28;20485;-79
2022/12/02 07:49:45;;;;;;;34.28;15.73;;;4.10;99.90;;;;;;5036349;28;20053;-87
2022/12/02 07:52:31;;;;;;;46.28;19.63;;;4.20;99.90;;;;;;5038430;28;20082;-78
2022/12/02 07:55:18;;;;;;;43.20;17.65;;;4.20;99.90;;;;;;5034066;28;20416;-79
2022/12/02 07:58:04;;;;;;;41.63;16.88;;;4.20;99.90;;;;;;5050854;28;20056;-86
2022/12/02 08:00:50;;;;;;;37.35;16.25;;;4.20;99.90;;;;;;5035638;28;20052;-89
2022/12/02 08:03:36;;;;;;;36.58;15.02;;;4.20;99.90;;;;;;5035541;28;20143;-85
2022/12/02 08:06:23;;;;;;;31.90;14.13;;;4.20;99.90;;;;;;5051259;28;20048;-77
2022/12/02 08:09:09;;;;;;;34.60;13.90;;;4.20;99.90;;;;;;5037084;28;20040;-78
2022/12/02 08:11:55;;;;;;;36.28;14.60;;;4.20;99.90;;;;;;5035210;28;20056;-81
2022/12/02 08:14:41;;;;;;;38.35;16.08;;;4.20;99.90;;;;;;5052421;28;20053;-81
2022/12/02 08:17:27;;;;;;;45.05;17.77;;;4.20;99.90;;;;;;5033842;28;20060;-83
2022/12/02 08:20:13;;;;;;;50.40;20.17;;;4.20;99.90;;;;;;5053229;28;20126;-84
2022/12/02 08:22:59;;;;;;;47.15;19.23;;;4.20;99.90;;;;;;5051333;28;20118;-86
2022/12/02 08:25:46;;;;;;;45.90;18.83;;;4.10;99.90;;;;;;5022026;28;20139;-88
2022/12/02 08:28:32;;;;;;;61.13;24.27;;;4.10;99.90;;;;;;5033392;28;20156;-80
2022/12/02 08:31:18;;;;;;;52.17;22.02;;;4.10;99.90;;;;;;5050886;28;20114;-78
2022/12/02 08:34:04;;;;;;;53.22;23.45;;;4.10;99.90;;;;;;5033998;28;20118;-84
2022/12/02 08:36:50;;;;;;;58.45;23.20;;;4.00;99.90;;;;;;5034529;28;20053;-83
2022/12/02 08:39:37;;;;;;;51.53;22.65;;;4.00;99.90;;;;;;5052031;28;20041;-82
2022/12/02 08:42:23;;;;;;;45.55;20.63;;;4.00;99.90;;;;;;5049709;28;20127;-79
2022/12/02 08:45:10;;;;;;;48.70;22.58;;;3.90;99.90;;;;;;5052386;28;20057;-78
2022/12/02 08:47:56;;;;;;;54.80;22.23;;;3.90;99.90;;;;;;5035208;28;20119;-84
2022/12/02 08:50:42;;;;;;;40.03;19.85;;;3.80;99.90;;;;;;5034251;28;20049;-78
2022/12/02 08:53:28;;;;;;;43.97;20.13;;;3.80;99.90;;;;;;5051897;28;20049;-85
2022/12/02 08:56:15;;;;;;;41.08;18.63;;;3.70;99.90;;;;;;5050945;28;20052;-78
2022/12/02 08:59:01;;;;;;;34.78;16.20;;;3.60;99.90;;;;;;5054296;28;20044;-81
2022/12/02 09:01:48;;;;;;;32.38;16.52;;;3.50;99.90;;;;;;5056534;28;20048;-78
2022/12/02 09:04:34;;;;;;;25.05;12.23;;;3.50;99.90;;;;;;5023006;28;20051;-80
2022/12/02 09:07:20;;;;;;;27.48;13.77;;;3.30;99.90;;;;;;5020212;28;20053;-77
2022/12/02 09:10:08;;;;;;;32.65;15.35;;;3.40;99.90;;;;;;5053629;28;20049;-82
2022/12/02 09:12:54;;;;;;;32.80;16.13;;;3.40;99.90;;;;;;5051813;28;20055;-84
2022/12/02 09:15:40;;;;;;;25.02;12.82;;;3.40;99.90;;;;;;5033544;28;20049;-83
2022/12/02 09:18:27;;;;;;;24.02;11.27;;;3.40;99.90;;;;;;5038850;28;20414;-82
2022/12/02 09:21:13;;;;;;;21.83;11.40;;;3.40;99.90;;;;;;5020327;28;20167;-82
2022/12/02 09:23:59;;;;;;;25.90;11.88;;;3.30;99.90;;;;;;5051212;28;20453;-77
2022/12/02 09:26:45;;;;;;;27.38;12.98;;;3.40;99.90;;;;;;5054739;28;20056;-83
2022/12/02 09:29:32;;;;;;;32.30;14.30;;;3.50;99.90;;;;;;5032657;28;20053;-82
2022/12/02 09:32:18;;;;;;;28.02;12.93;;;3.40;99.90;;;;;;5034953;28;20044;-80
2022/12/02 09:35:05;;;;;;;28.98;14.30;;;3.40;99.90;;;;;;5037215;28;20064;-77
2022/12/02 09:37:51;;;;;;;32.17;14.35;;;3.40;99.90;;;;;;5005686;28;20052;-77
2022/12/02 09:40:37;;;;;;;29.83;13.73;;;3.40;99.90;;;;;;5034423;28;20057;-77
2022/12/02 09:43:23;;;;;;;39.90;14.10;;;3.50;99.90;;;;;;5032134;28;20057;-76
2022/12/02 09:46:11;;;;;;;31.30;15.10;;;3.60;99.90;;;;;;5050408;28;20084;-77
2022/12/02 09:48:57;;;;;;;29.88;14.38;;;3.60;99.90;;;;;;5037694;28;20053;-79
2022/12/02 09:51:44;;;;;;;34.78;16.40;;;3.60;99.90;;;;;;5032658;28;20114;-79
2022/12/02 09:54:30;;;;;;;32.83;16.35;;;3.60;99.90;;;;;;5050180;28;20082;-84
2022/12/02 09:57:17;;;;;;;33.58;15.35;;;3.60;99.90;;;;;;5051516;28;20516;-84
2022/12/02 10:00:07;;;;;;;30.55;15.07;;;3.70;99.90;;;;;;5036047;28;20053;-83
2022/12/02 10:02:54;;;;;;;35.72;16.90;;;4.10;99.90;;;;;;5051124;28;20110;-81
2022/12/02 10:05:40;;;;;;;34.03;15.07;;;4.50;99.90;;;;;;5051191;28;20115;-86
2022/12/02 10:08:28;;;;;;;30.77;15.38;;;4.60;99.90;;;;;;5049625;28;20150;-79
2022/12/02 10:11:27;;;;;;;31.88;15.32;;;4.70;99.90;;;;;;5031501;28;20056;-79
2022/12/02 10:14:14;;;;;;;37.33;17.33;;;4.80;99.90;;;;;;5050144;28;20053;-81
2022/12/02 10:17:03;;;;;;;33.50;16.45;;;4.90;99.90;;;;;;5032661;28;20057;-81
2022/12/02 10:19:49;;;;;;;32.38;15.23;;;5.00;99.90;;;;;;5021998;28;20417;-85
2022/12/02 10:23:11;;;;;;;32.85;16.83;;;4.90;99.90;;;;;;5038136;28;20123;-86
2022/12/02 10:26:11;;;;;;;37.13;17.30;;;4.90;99.90;;;;;;5038985;28;20114;-80
2022/12/02 10:29:04;;;;;;;37.47;17.77;;;4.70;99.90;;;;;;5035817;28;20049;-78
2022/12/02 10:32:02;;;;;;;37.63;18.20;;;4.80;99.90;;;;;;5049346;28;20049;-76
2022/12/02 10:35:05;;;;;;;43.28;20.23;;;4.80;99.90;;;;;;5049712;28;20095;-79
2022/12/02 10:37:51;;;;;;;37.85;18.88;;;4.60;99.90;;;;;;5032594;28;20052;-78
2022/12/02 10:40:37;;;;;;;38.90;21.20;;;4.50;99.90;;;;;;5049908;28;20053;-77
2022/12/02 10:43:24;;;;;;;42.05;20.65;;;4.30;99.90;;;;;;5053930;28;20264;-79
2022/12/02 10:46:13;;;;;;;42.90;21.38;;;4.40;99.90;;;;;;5052188;28;20057;-81
2022/12/02 10:49:35;;;;;;;40.80;21.52;;;4.80;99.90;;;;;;5049764;28;20199;-79
2022/12/02 10:52:28;;;;;;;40.55;20.80;;;5.80;99.90;;;;;;4968546;28;20051;-80
2022/12/02 10:55:16;;;;;;;45.70;22.25;;;6.60;99.90;;;;;;5035650;28;20064;-83
2022/12/02 10:58:02;;;;;;;40.58;22.90;;;6.70;99.90;;;;;;5055755;28;20047;-86
2022/12/02 11:00:48;;;;;;;39.72;20.48;;;6.80;99.90;;;;;;5038565;28;20041;-81
2022/12/02 11:03:34;;;;;;;44.17;21.55;;;7.10;99.90;;;;;;5036088;28;20075;-80
2022/12/02 11:06:21;;;;;;;42.75;20.65;;;7.30;99.90;;;;;;5036825;28;20059;-79
2022/12/02 11:09:14;;;;;;;37.92;20.85;;;7.90;99.90;;;;;;5052379;28;20088;-77
2022/12/02 11:12:30;;;;;;;39.15;21.90;;;8.00;99.90;;;;;;5022878;28;20041;-85
2022/12/02 11:15:35;;;;;;;41.22;21.27;;;7.60;99.90;;;;;;5037572;28;20130;-82
2022/12/02 11:18:24;;;;;;;35.00;20.05;;;7.20;99.90;;;;;;5039437;28;20080;-87
2022/12/02 11:21:13;;;;;;;40.42;22.20;;;7.20;99.90;;;;;;5055674;28;20088;-82
2022/12/02 11:24:27;;;;;;;39.03;21.27;;;6.90;99.90;;;;;;5035278;28;20489;-79
2022/12/02 11:27:13;;;;;;;38.10;21.15;;;6.70;99.90;;;;;;5035346;28;20426;-77
2022/12/02 11:30:14;;;;;;;35.75;20.42;;;6.50;99.90;;;;;;5054051;28;20108;-78
2022/12/02 11:33:00;;;;;;;36.50;20.17;;;6.20;99.90;;;;;;5054087;28;20053;-81
2022/12/02 11:36:05;;;;;;;34.67;18.85;;;5.80;99.90;;;;;;5052391;28;20048;-82
2022/12/02 11:38:51;;;;;;;36.75;19.52;;;5.60;99.90;;;;;;5036137;28;20049;-79
2022/12/02 11:41:47;;;;;;;32.85;18.13;;;5.40;99.90;;;;;;5035369;28;20041;-86
2022/12/02 11:44:33;;;;;;;36.30;18.35;;;5.20;99.90;;;;;;5035214;28;20090;-84
2022/12/02 11:47:29;;;;;;;36.35;19.92;;;5.20;99.90;;;;;;5053411;28;20049;-78
2022/12/02 11:50:15;;;;;;;34.35;17.35;;;5.20;99.90;;;;;;5052645;28;20099;-80
2022/12/02 11:53:15;;;;;;;34.63;18.05;;;5.40;99.90;;;;;;5055306;28;20091;-80
2022/12/02 11:56:01;;;;;;;36.00;18.55;;;5.50;99.90;;;;;;5051842;28;20476;-84
2022/12/02 11:58:48;;;;;;;37.63;19.27;;;5.60;99.90;;;;;;5034718;28;20567;-86
2022/12/02 12:01:34;;;;;;;31.70;16.80;;;5.50;99.90;;;;;;5034961;28;20110;-83
2022/12/02 12:04:25;;;;;;;31.65;17.17;;;5.30;99.90;;;;;;5051551;28;20433;-85
2022/12/02 12:07:12;;;;;;;34.58;17.88;;;5.20;99.90;;;;;;5054505;28;20056;-86
2022/12/02 12:09:58;;;;;;;33.30;17.98;;;5.10;99.90;;;;;;5054947;28;20041;-79
2022/12/02 12:13:16;;;;;;;34.65;19.10;;;5.00;99.90;;;;;;5035424;28;20057;-79
2022/12/02 12:16:02;;;;;;;32.42;17.17;;;5.00;99.90;;;;;;5051927;28;20057;-85
2022/12/02 12:18:49;;;;;;;28.83;15.60;;;4.90;99.90;;;;;;5020930;28;20508;-84
2022/12/02 12:21:41;;;;;;;30.20;16.55;;;4.90;99.90;;;;;;5051648;28;20053;-82
2022/12/02 12:24:29;;;;;;;28.42;15.05;;;5.00;99.90;;;;;;5051997;28;20067;-84
2022/12/02 12:27:36;;;;;;;29.10;15.25;;;5.50;99.90;;;;;;5033273;28;20048;-81
2022/12/02 12:30:23;;;;;;;27.15;14.50;;;6.60;99.90;;;;;;5036269;28;20104;-82
2022/12/02 12:33:09;;;;;;;26.48;14.48;;;8.00;99.90;;;;;;5037260;28;20095;-81
2022/12/02 12:35:56;;;;;;;25.63;14.57;;;8.40;99.90;;;;;;5033920;28;20052;-81
2022/12/02 12:38:42;;;;;;;27.85;14.95;;;8.30;99.90;;;;;;5034215;28;20056;-85
2022/12/02 12:41:28;;;;;;;22.48;13.35;;;8.30;99.90;;;;;;5054275;28;20052;-77
